createdAt,value
2022-11-24T00:02:31.086Z,90467.80
2022-11-24T00:10:53.784Z,90453.21
2022-11-24T00:19:19.595Z,90442.96
2022-11-24T00:27:41.667Z,90450.36
2022-11-24T00:36:03.716Z,90433.60
2022-11-24T00:44:25.726Z,90419.73
2022-11-24T00:52:47.686Z,90435.45
2022-11-24T01:01:13.965Z,90451.72
2022-11-24T01:09:37.305Z,90447.29
2022-11-24T01:17:59.237Z,90446.93
2022-11-24T01:26:22.128Z,90457.54
2022-11-24T01:34:43.762Z,90452.80
2022-11-24T01:43:16.652Z,90455.84
2022-11-24T01:51:44.925Z,90463.62
2022-11-24T02:00:10.736Z,90443.55
2022-11-24T02:09:04.116Z,90442.10
2022-11-24T02:17:25.713Z,90445.23
2022-11-24T02:26:06.243Z,90425.57
2022-11-24T02:34:28.206Z,90423.23
2022-11-24T02:42:54.690Z,90422.02
2022-11-24T02:51:16.507Z,90422.36
2022-11-24T02:59:39.254Z,90407.49
2022-11-24T03:08:01.354Z,90412.44
2022-11-24T03:16:22.847Z,90420.27
2022-11-24T03:24:44.860Z,90398.69
2022-11-24T03:33:06.622Z,90383.81
2022-11-24T03:41:28.120Z,90378.65
2022-11-24T03:49:50.047Z,90362.08
2022-11-24T03:58:11.668Z,90351.48
2022-11-24T04:06:33.508Z,90359.15
2022-11-24T04:14:55.026Z,90339.70
2022-11-24T04:23:17.424Z,90336.09
2022-11-24T04:31:38.985Z,90352.88
2022-11-24T04:40:02.341Z,90350.20
2022-11-24T04:48:24.041Z,90345.16
2022-11-24T04:56:50.955Z,90360.85
2022-11-24T05:05:12.485Z,90359.45
2022-11-24T05:13:34.992Z,90349.89
2022-11-24T05:21:57.380Z,90359.88
2022-11-24T05:30:18.953Z,90361.63
2022-11-24T05:38:40.384Z,90348.60
2022-11-24T05:47:02.351Z,90352.46
2022-11-24T05:55:23.824Z,90362.29
2022-11-24T06:03:46.238Z,90361.16
2022-11-24T06:12:14.323Z,90348.64
2022-11-24T06:20:35.909Z,90354.30
2022-11-24T06:28:58.256Z,90372.21
2022-11-24T06:37:20.324Z,90376.90
2022-11-24T06:45:42.539Z,90391.93
2022-11-24T06:54:09.410Z,90431.80
2022-11-24T07:02:31.264Z,90464.81
2022-11-24T07:10:52.757Z,90464.02
2022-11-24T07:19:14.407Z,90496.90
2022-11-24T07:27:36.758Z,90535.23
2022-11-24T07:36:02.515Z,90535.54
2022-11-24T07:44:23.963Z,90554.20
2022-11-24T07:52:46.314Z,90603.30
2022-11-24T08:01:13.971Z,90629.24
2022-11-24T08:09:35.645Z,90665.60
2022-11-24T08:18:00.678Z,90717.89
2022-11-24T08:26:24.299Z,90725.07
2022-11-24T08:34:45.944Z,90714.89
2022-11-24T08:43:07.491Z,90709.13
2022-11-24T08:51:29.099Z,90725.36
2022-11-24T08:59:51.863Z,90718.05
2022-11-24T09:08:13.368Z,90726.73
2022-11-24T09:16:35.477Z,90698.39
2022-11-24T09:24:57.557Z,90682.61
2022-11-24T09:33:19.174Z,90673.98
2022-11-24T09:42:07.524Z,90676.61
2022-11-24T09:50:36.125Z,90701.78
2022-11-24T09:59:13.644Z,90698.09
2022-11-24T10:07:53.183Z,90693.95
2022-11-24T10:16:44.577Z,90696.63
2022-11-24T10:25:18.237Z,90686.05
2022-11-24T10:33:41.839Z,90729.55
2022-11-24T10:42:25.525Z,90752.04
2022-11-24T10:50:47.606Z,90749.98
2022-11-24T10:59:28.542Z,90762.17
2022-11-24T11:07:50.199Z,90748.54
2022-11-24T11:16:23.496Z,90748.59
2022-11-24T11:24:47.868Z,90750.60
2022-11-24T11:42:45.313Z,90785.21
2022-11-24T11:51:23.402Z,90797.88
2022-11-24T11:59:51.218Z,90816.30
2022-11-24T12:08:24.999Z,90805.98
2022-11-24T12:17:11.070Z,90808.60
2022-11-24T12:26:04.280Z,90809.84
2022-11-24T12:34:42.862Z,90824.77
2022-11-24T12:43:20.270Z,90847.33
2022-11-24T12:51:45.452Z,90818.30
2022-11-24T13:00:20.627Z,90784.91
2022-11-24T13:08:42.780Z,90792.40
2022-11-24T13:17:33.751Z,90818.25
2022-11-24T13:26:14.818Z,90789.96
2022-11-24T13:34:43.181Z,90761.73
2022-11-24T13:43:04.862Z,90756.48
2022-11-24T13:51:26.435Z,90759.36
2022-11-24T13:59:48.095Z,90731.34
2022-11-24T14:08:28.925Z,90710.61
2022-11-24T14:17:16.882Z,90729.43
2022-11-24T14:25:38.383Z,90718.14
2022-11-24T14:34:11.718Z,90707.98
2022-11-24T14:42:34.367Z,90723.15
2022-11-24T14:51:15.608Z,90734.69
2022-11-24T14:59:37.618Z,90743.23
2022-11-24T15:08:02.372Z,90756.16
2022-11-24T15:16:28.615Z,90740.34
2022-11-24T15:24:52.974Z,90741.27
2022-11-24T15:33:16.588Z,90742.30
2022-11-24T15:41:38.238Z,90718.14
2022-11-24T17:30:57.593Z,90641.71
2022-11-24T17:39:24.800Z,90665.27
2022-11-24T17:47:47.104Z,90682.09
2022-11-24T17:56:13.193Z,90669.51
2022-11-24T18:04:35.700Z,90673.17
2022-11-24T18:12:58.072Z,90688.13
2022-11-24T18:21:19.599Z,90682.86
2022-11-24T18:29:41.572Z,90675.95
2022-11-24T18:38:04.060Z,90681.51
2022-11-24T18:46:25.918Z,90670.64
2022-11-24T18:54:47.695Z,90666.73
2022-11-24T19:03:09.740Z,90678.21
2022-11-24T19:11:35.765Z,90669.80
2022-11-24T19:19:58.002Z,90646.36
2022-11-24T19:28:19.672Z,90641.92
2022-11-24T19:36:42.654Z,90645.74
2022-11-24T19:45:05.432Z,90636.66
2022-11-24T19:53:28.030Z,90601.39
2022-11-24T20:01:49.722Z,90601.70
2022-11-24T20:10:11.523Z,90620.02
2022-11-24T20:18:37.576Z,90628.14
2022-11-24T20:27:03.199Z,90642.28
2022-11-24T20:35:25.187Z,90650.77
2022-11-24T20:43:48.032Z,90634.02
2022-11-24T20:52:10.951Z,90633.10
2022-11-24T21:00:32.468Z,90642.59
2022-11-24T21:08:58.975Z,90642.89
2022-11-24T21:17:24.611Z,90647.84
2022-11-24T21:25:46.395Z,90674.02
2022-11-24T21:34:08.325Z,90679.09
2022-11-24T21:42:29.887Z,90663.45
2022-11-24T21:50:51.691Z,90669.96
2022-11-24T21:59:13.383Z,90669.86
2022-11-24T22:07:35.085Z,90665.27
2022-11-24T22:16:01.745Z,90694.36
2022-11-24T22:24:27.229Z,90726.29
2022-11-24T22:32:49.592Z,90734.91
2022-11-24T22:41:14.512Z,90729.27
2022-11-24T22:49:36.167Z,90717.61
2022-11-24T22:57:59.254Z,90713.85
2022-11-24T23:06:24.355Z,90729.13
2022-11-24T23:14:45.955Z,90716.89
2022-11-24T23:23:07.601Z,90710.24
2022-11-24T23:31:30.203Z,90720.81
2022-11-24T23:39:52.044Z,90706.79
2022-11-24T23:48:13.585Z,90711.58
2022-11-24T23:56:35.285Z,90713.04
